createdAt,value
2019-03-22T00:01:33.822Z,4.87
2019-03-22T00:04:01.866Z,4.83
2019-03-22T00:06:29.579Z,4.83
2019-03-22T00:08:57.152Z,4.86
2019-03-22T00:11:25.174Z,4.86
2019-03-22T00:13:52.950Z,4.81
2019-03-22T00:16:21.934Z,4.79
2019-03-22T00:18:49.611Z,4.86
2019-03-22T00:21:17.778Z,4.88
2019-03-22T00:23:45.464Z,4.74
2019-03-22T00:26:13.170Z,4.80
2019-03-22T00:28:41.334Z,4.88
2019-03-22T00:31:08.947Z,4.77
2019-03-22T00:33:36.545Z,4.64
2019-03-22T00:36:04.115Z,4.56
2019-03-22T00:38:31.658Z,4.67
2019-03-22T00:40:59.400Z,4.85
2019-03-22T00:43:27.165Z,5.16
2019-03-22T00:45:54.703Z,5.52
2019-03-22T00:48:24.841Z,5.62
2019-03-22T00:50:51.893Z,5.11
2019-03-22T00:53:19.490Z,4.82
2019-03-22T00:55:49.712Z,4.64
2019-03-22T00:58:17.301Z,4.88
2019-03-22T01:00:44.881Z,5.46
2019-03-22T01:03:12.575Z,5.82
2019-03-22T01:05:40.615Z,5.97
2019-03-22T01:08:08.189Z,6.06
2019-03-22T01:10:36.322Z,5.96
2019-03-22T01:13:03.854Z,5.83
2019-03-22T01:15:31.497Z,5.86
2019-03-22T01:17:59.098Z,5.88
2019-03-22T01:20:27.068Z,5.91
2019-03-22T01:22:54.747Z,5.84
2019-03-22T01:25:22.943Z,5.98
2019-03-22T01:27:50.637Z,6.04
2019-03-22T01:30:18.692Z,5.75
2019-03-22T01:32:46.928Z,5.39
2019-03-22T01:35:14.814Z,5.34
2019-03-22T01:37:42.583Z,5.15
2019-03-22T01:40:10.623Z,4.75
2019-03-22T01:42:38.177Z,4.58
2019-03-22T01:45:07.474Z,4.57
2019-03-22T01:47:35.509Z,4.54
2019-03-22T01:50:03.802Z,4.35
2019-03-22T01:52:31.489Z,4.16
2019-03-22T01:54:59.211Z,4.40
2019-03-22T01:57:26.784Z,4.32
2019-03-22T01:59:54.361Z,4.38
2019-03-22T02:02:22.693Z,4.06
2019-03-22T02:04:50.470Z,3.90
2019-03-22T02:07:18.100Z,3.73
2019-03-22T02:09:45.719Z,3.73
2019-03-22T02:12:13.419Z,3.80
2019-03-22T02:14:41.183Z,3.77
2019-03-22T02:17:09.200Z,3.75
2019-03-22T02:19:36.766Z,3.78
2019-03-22T02:22:04.538Z,3.87
2019-03-22T02:24:32.176Z,4.08
2019-03-22T02:27:00.021Z,4.09
2019-03-22T02:29:27.644Z,4.13
2019-03-22T02:31:55.890Z,4.19
2019-03-22T02:34:23.554Z,4.27
2019-03-22T02:36:51.198Z,4.02
2019-03-22T02:39:18.880Z,3.86
2019-03-22T02:41:46.590Z,3.82
2019-03-22T02:44:14.243Z,3.82
2019-03-22T02:46:42.362Z,3.74
2019-03-22T02:49:09.914Z,3.66
2019-03-22T02:51:38.895Z,3.68
2019-03-22T02:54:06.896Z,3.67
2019-03-22T02:56:34.550Z,3.69
2019-03-22T02:59:02.083Z,3.80
2019-03-22T03:01:30.313Z,4.08
2019-03-22T03:03:58.001Z,4.37
2019-03-22T03:06:25.549Z,4.57
2019-03-22T03:08:54.894Z,4.91
2019-03-22T03:11:22.606Z,5.16
2019-03-22T03:13:50.355Z,5.45
2019-03-22T03:16:17.947Z,5.60
2019-03-22T03:18:45.588Z,5.64
2019-03-22T03:21:13.163Z,5.60
2019-03-22T03:23:41.062Z,5.01
2019-03-22T03:26:08.689Z,4.82
2019-03-22T03:28:37.913Z,5.16
2019-03-22T03:31:06.678Z,5.30
2019-03-22T03:33:34.215Z,5.49
2019-03-22T03:36:02.115Z,5.61
2019-03-22T03:38:29.842Z,5.75
2019-03-22T03:40:57.388Z,5.85
2019-03-22T03:43:25.420Z,5.88
2019-03-22T03:45:53.026Z,5.98
2019-03-22T03:48:20.591Z,6.05
2019-03-22T03:50:48.712Z,5.93
2019-03-22T03:53:16.308Z,5.84
2019-03-22T03:55:44.009Z,5.76
2019-03-22T03:58:11.707Z,5.72
2019-03-22T04:00:40.476Z,5.63
2019-03-22T04:03:08.228Z,5.66
2019-03-22T04:05:36.494Z,5.53
2019-03-22T04:08:04.717Z,5.06
2019-03-22T04:10:32.308Z,4.66
2019-03-22T04:12:59.958Z,4.69
2019-03-22T04:15:27.903Z,4.72
2019-03-22T04:17:55.884Z,4.75
2019-03-22T04:20:23.432Z,4.82
2019-03-22T04:22:51.105Z,4.96
2019-03-22T04:25:18.672Z,5.05
2019-03-22T04:27:46.445Z,5.25
2019-03-22T04:30:14.599Z,5.34
2019-03-22T04:32:43.266Z,4.55
2019-03-22T04:35:11.011Z,3.97
2019-03-22T04:37:38.713Z,3.69
2019-03-22T04:40:27.986Z,3.74
2019-03-22T04:42:56.085Z,4.12
2019-03-22T04:45:25.624Z,4.37
2019-03-22T04:47:59.115Z,4.38
2019-03-22T04:50:27.959Z,4.51
2019-03-22T04:52:56.412Z,4.83
2019-03-22T04:55:24.821Z,5.14
2019-03-22T04:57:53.554Z,5.25
2019-03-22T05:00:22.131Z,5.15
2019-03-22T05:02:51.818Z,5.01
2019-03-22T05:05:19.869Z,4.97
2019-03-22T05:07:48.941Z,5.07
2019-03-22T05:10:17.183Z,5.09
2019-03-22T05:12:46.219Z,4.50
2019-03-22T05:15:17.884Z,4.59
2019-03-22T05:17:46.518Z,4.79
2019-03-22T05:20:16.051Z,4.99
2019-03-22T05:22:44.979Z,5.13
2019-03-22T05:25:13.643Z,5.06
2019-03-22T05:27:44.032Z,4.79
2019-03-22T05:30:36.146Z,4.13
2019-03-22T05:33:03.693Z,3.95
2019-03-22T05:35:31.342Z,3.80
2019-03-22T05:37:59.432Z,4.07
2019-03-22T05:40:26.993Z,3.87
2019-03-22T05:42:54.573Z,3.82
2019-03-22T05:45:22.250Z,3.74
2019-03-22T05:47:50.034Z,3.77
2019-03-22T05:50:17.655Z,4.33
2019-03-22T05:52:45.428Z,4.95
2019-03-22T05:55:13.463Z,5.69
2019-03-22T05:57:41.081Z,6.20
2019-03-22T06:00:08.936Z,6.61
2019-03-22T06:02:36.825Z,6.74
2019-03-22T06:05:05.170Z,6.76
2019-03-22T06:07:32.790Z,6.52
2019-03-22T06:10:00.439Z,5.62
2019-03-22T06:12:28.122Z,5.27
2019-03-22T06:14:55.729Z,5.09
2019-03-22T06:17:23.371Z,5.02
2019-03-22T06:19:51.120Z,5.03
2019-03-22T06:22:19.325Z,5.17
2019-03-22T06:24:47.321Z,5.60
2019-03-22T06:27:14.896Z,5.83
2019-03-22T06:29:53.749Z,6.04
2019-03-22T06:32:12.505Z,6.00
2019-03-22T06:34:40.066Z,5.96
2019-03-22T06:37:08.156Z,6.14
2019-03-22T06:39:35.958Z,6.06
2019-03-22T06:42:03.593Z,6.35
2019-03-22T06:44:31.736Z,6.98
2019-03-22T06:47:02.626Z,7.00
2019-03-22T06:49:31.513Z,6.85
2019-03-22T06:51:59.572Z,6.83
2019-03-22T06:54:32.128Z,6.91
2019-03-22T06:57:00.440Z,6.96
2019-03-22T06:59:28.626Z,7.53
2019-03-22T07:01:56.246Z,8.25
2019-03-22T07:04:23.859Z,8.59
2019-03-22T07:06:53.902Z,8.81
2019-03-22T07:09:22.185Z,9.27
2019-03-22T07:11:53.928Z,9.64
2019-03-22T07:14:26.649Z,9.51
2019-03-22T07:16:58.750Z,9.47
2019-03-22T07:19:34.591Z,9.97
2019-03-22T07:22:13.084Z,10.87
2019-03-22T07:24:40.646Z,11.26
2019-03-22T07:27:08.319Z,11.51
2019-03-22T07:29:35.986Z,11.33
2019-03-22T07:32:03.878Z,11.46
2019-03-22T07:34:31.777Z,11.53
2019-03-22T07:36:59.597Z,11.31
2019-03-22T07:39:27.236Z,11.61
2019-03-22T07:41:54.907Z,11.64
2019-03-22T07:44:22.533Z,12.26
2019-03-22T07:46:50.132Z,12.02
2019-03-22T07:49:18.553Z,11.94
2019-03-22T07:51:46.155Z,11.95
2019-03-22T07:54:13.735Z,12.02
2019-03-22T07:56:43.109Z,12.29
2019-03-22T07:59:10.789Z,12.44
2019-03-22T08:01:38.370Z,13.14
2019-03-22T08:04:07.852Z,12.81
2019-03-22T08:06:36.564Z,13.00
2019-03-22T08:09:07.005Z,13.52
2019-03-22T08:11:35.998Z,13.63
2019-03-22T08:14:03.602Z,13.68
2019-03-22T08:16:31.298Z,14.37
2019-03-22T08:19:05.447Z,14.40
2019-03-22T08:21:32.953Z,14.62
2019-03-22T08:24:01.074Z,14.82
2019-03-22T08:26:30.067Z,14.90
2019-03-22T08:28:57.841Z,14.98
2019-03-22T08:31:26.189Z,15.10
2019-03-22T08:33:53.838Z,15.02
2019-03-22T08:36:21.475Z,15.33
2019-03-22T08:38:53.217Z,15.36
2019-03-22T08:41:23.680Z,15.78
2019-03-22T08:43:58.074Z,15.95
2019-03-22T08:46:27.043Z,16.54
2019-03-22T08:48:55.080Z,15.79
2019-03-22T08:51:22.727Z,15.75
2019-03-22T08:53:55.628Z,15.74
2019-03-22T08:56:21.676Z,15.62
2019-03-22T08:58:53.035Z,15.79
2019-03-22T09:01:20.758Z,15.55
2019-03-22T09:04:02.044Z,15.66
2019-03-22T09:06:29.611Z,16.22
2019-03-22T09:08:57.266Z,16.47
2019-03-22T09:11:24.872Z,16.39
2019-03-22T09:13:53.896Z,16.44
2019-03-22T09:16:22.286Z,17.11
2019-03-22T09:18:50.214Z,17.28
2019-03-22T09:21:18.761Z,16.82
2019-03-22T09:23:48.385Z,17.39
2019-03-22T09:26:19.973Z,18.39
2019-03-22T09:28:50.051Z,18.74
2019-03-22T09:31:21.828Z,18.72
2019-03-22T09:33:54.915Z,19.09
2019-03-22T09:36:25.903Z,19.37
2019-03-22T09:38:54.382Z,19.33
2019-03-22T09:41:25.316Z,19.46
2019-03-22T09:43:52.929Z,20.57
2019-03-22T09:46:26.910Z,20.86
2019-03-22T09:48:54.461Z,20.97
2019-03-22T09:51:22.449Z,20.39
2019-03-22T09:53:50.061Z,21.15
2019-03-22T09:56:19.843Z,21.39
2019-03-22T09:58:50.195Z,21.68
2019-03-22T10:01:23.715Z,22.01
2019-03-22T10:03:47.356Z,22.70
2019-03-22T10:06:15.368Z,23.11
2019-03-22T10:08:45.495Z,23.84
2019-03-22T10:11:14.268Z,24.04
2019-03-22T10:13:44.469Z,23.70
2019-03-22T10:16:14.581Z,25.10
2019-03-22T10:18:42.266Z,23.89
2019-03-22T10:21:21.838Z,23.25
2019-03-22T10:23:45.156Z,23.41
2019-03-22T10:26:12.696Z,23.57
2019-03-22T10:28:40.470Z,24.86
2019-03-22T10:31:08.552Z,25.29
2019-03-22T10:33:36.103Z,25.12
2019-03-22T10:36:03.869Z,24.57
2019-03-22T10:38:32.332Z,24.19
2019-03-22T10:41:00.106Z,23.53
2019-03-22T10:43:27.889Z,24.06
2019-03-22T10:45:55.971Z,25.26
2019-03-22T10:48:23.601Z,26.70
2019-03-22T10:50:51.219Z,27.29
2019-03-22T10:53:18.936Z,27.07
2019-03-22T10:55:47.768Z,28.91
2019-03-22T10:59:07.754Z,27.20
2019-03-22T11:01:48.668Z,25.03
2019-03-22T11:06:36.235Z,24.93
2019-03-22T11:09:06.236Z,26.51
2019-03-22T11:11:33.946Z,27.42
2019-03-22T11:14:03.640Z,27.88
2019-03-22T11:16:31.357Z,27.78
2019-03-22T11:19:01.226Z,28.29
2019-03-22T11:21:32.664Z,28.91
2019-03-22T11:24:00.626Z,29.54
2019-03-22T11:26:35.541Z,28.41
2019-03-22T11:29:07.799Z,27.53
2019-03-22T11:31:40.067Z,28.02
2019-03-22T11:34:18.121Z,29.47
2019-03-22T11:37:02.999Z,31.31
2019-03-22T11:42:51.536Z,29.66
2019-03-22T11:45:24.611Z,27.96
2019-03-22T11:47:54.190Z,28.71
2019-03-22T11:50:23.462Z,28.04
2019-03-22T11:52:52.103Z,30.58
2019-03-22T11:55:19.706Z,29.81
2019-03-22T11:57:48.052Z,31.12
2019-03-22T12:00:25.236Z,28.79
2019-03-22T12:03:17.008Z,26.92
2019-03-22T12:06:03.235Z,25.76
2019-03-22T12:08:35.726Z,27.68
2019-03-22T12:11:03.305Z,29.03
2019-03-22T12:13:30.946Z,29.17
2019-03-22T12:16:01.089Z,27.21
2019-03-22T12:18:30.225Z,27.99
2019-03-22T12:21:11.837Z,28.44
2019-03-22T12:23:39.384Z,27.67
2019-03-22T12:26:07.043Z,28.98
2019-03-22T12:28:34.760Z,28.83
2019-03-22T12:31:02.363Z,27.87
2019-03-22T12:33:30.181Z,26.58
2019-03-22T12:35:58.176Z,26.88
2019-03-22T12:38:25.723Z,27.08
2019-03-22T12:40:53.544Z,27.46
2019-03-22T12:43:23.002Z,28.17
2019-03-22T12:45:51.418Z,29.97
2019-03-22T12:48:19.055Z,29.42
2019-03-22T12:50:46.664Z,28.81
2019-03-22T12:53:14.680Z,28.06
2019-03-22T12:55:42.259Z,27.27
2019-03-22T12:58:11.156Z,26.47
2019-03-22T13:00:38.852Z,26.27
2019-03-22T13:03:06.431Z,25.63
2019-03-22T13:05:34.043Z,26.24
2019-03-22T13:08:15.160Z,25.37
2019-03-22T13:11:10.514Z,25.06
2019-03-22T13:13:39.522Z,24.27
2019-03-22T13:16:07.150Z,23.29
2019-03-22T13:18:34.956Z,23.35
2019-03-22T13:21:04.294Z,23.67
2019-03-22T13:23:32.056Z,23.28
2019-03-22T13:25:59.771Z,23.02
2019-03-22T13:28:27.368Z,23.68
2019-03-22T13:30:55.404Z,23.86
2019-03-22T13:33:23.589Z,24.15
2019-03-22T13:35:51.190Z,23.94
2019-03-22T13:38:19.196Z,23.93
2019-03-22T13:40:51.895Z,23.36
2019-03-22T13:43:19.680Z,23.64
2019-03-22T13:45:48.664Z,24.04
2019-03-22T13:48:18.851Z,24.00
2019-03-22T13:50:46.589Z,24.23
2019-03-22T13:53:14.577Z,23.51
2019-03-22T13:55:42.692Z,23.65
2019-03-22T13:58:10.582Z,23.36
2019-03-22T14:00:38.198Z,21.99
2019-03-22T14:03:05.895Z,22.78
2019-03-22T14:05:33.475Z,24.30
2019-03-22T14:08:01.301Z,25.42
2019-03-22T14:10:33.297Z,24.58
2019-03-22T14:13:00.956Z,24.75
2019-03-22T14:15:28.753Z,23.89
2019-03-22T14:17:56.970Z,23.35
2019-03-22T14:20:25.064Z,23.37
2019-03-22T14:22:53.955Z,23.55
2019-03-22T14:25:23.809Z,23.49
2019-03-22T14:27:52.550Z,23.18
2019-03-22T14:30:22.037Z,22.77
2019-03-22T14:32:49.659Z,23.10
2019-03-22T14:35:17.264Z,23.08
2019-03-22T14:37:55.097Z,23.48
2019-03-22T14:40:45.951Z,25.48
2019-03-22T14:43:15.791Z,28.18
2019-03-22T14:45:43.454Z,31.08
2019-03-22T14:48:11.227Z,30.92
2019-03-22T14:50:39.405Z,30.90
2019-03-22T14:53:07.353Z,30.46
2019-03-22T14:55:34.930Z,32.21
2019-03-22T14:58:02.576Z,32.53
2019-03-22T15:00:30.184Z,32.14
2019-03-22T15:03:05.367Z,32.76
2019-03-22T15:05:47.314Z,32.72
2019-03-22T15:12:23.106Z,32.36
2019-03-22T15:15:14.517Z,34.26
2019-03-22T15:18:09.059Z,35.06
2019-03-22T15:20:59.266Z,34.88
2019-03-22T15:23:45.323Z,32.53
2019-03-22T15:26:45.544Z,32.20
2019-03-22T15:29:31.183Z,29.80
2019-03-22T15:32:21.022Z,31.13
2019-03-22T15:35:08.270Z,31.72
2019-03-22T15:38:11.008Z,30.40
2019-03-22T15:40:42.110Z,29.91
2019-03-22T15:43:10.201Z,30.08
2019-03-22T15:45:37.785Z,29.77
2019-03-22T15:48:05.365Z,30.24
2019-03-22T15:50:32.998Z,30.47
2019-03-22T15:53:01.366Z,31.78
2019-03-22T15:55:29.123Z,33.07
2019-03-22T15:57:56.753Z,32.99
2019-03-22T16:00:24.778Z,32.04
2019-03-22T16:02:52.920Z,31.36
2019-03-22T16:05:20.519Z,30.41
2019-03-22T16:07:48.227Z,29.61
2019-03-22T16:10:16.023Z,28.81
2019-03-22T16:12:43.940Z,29.21
2019-03-22T16:15:12.190Z,31.00
2019-03-22T16:17:39.773Z,31.29
2019-03-22T16:20:08.636Z,29.30
2019-03-22T16:22:36.317Z,28.16
2019-03-22T16:25:07.182Z,27.48
2019-03-22T16:27:35.365Z,27.48
2019-03-22T16:30:04.913Z,27.61
2019-03-22T16:32:32.565Z,27.49
2019-03-22T16:35:00.345Z,27.61
2019-03-22T16:37:28.105Z,27.58
2019-03-22T16:39:56.200Z,27.59
2019-03-22T16:42:23.843Z,26.66
2019-03-22T16:44:51.463Z,26.05
2019-03-22T16:47:19.086Z,25.44
2019-03-22T16:50:00.995Z,26.15
2019-03-22T16:52:32.874Z,26.74
2019-03-22T16:55:03.931Z,26.32
2019-03-22T16:57:34.804Z,25.07
2019-03-22T17:00:05.551Z,24.27
2019-03-22T17:02:41.823Z,23.46
2019-03-22T17:05:10.355Z,22.93
2019-03-22T17:07:38.049Z,22.38
2019-03-22T17:10:07.817Z,22.42
2019-03-22T17:12:36.887Z,22.64
2019-03-22T17:15:05.216Z,22.51
2019-03-22T17:17:34.934Z,21.85
2019-03-22T17:20:02.549Z,21.31
2019-03-22T17:22:30.199Z,21.12
2019-03-22T17:24:58.388Z,20.85
2019-03-22T17:27:26.912Z,20.28
2019-03-22T17:29:54.504Z,19.63
2019-03-22T17:32:23.038Z,19.12
2019-03-22T17:34:50.816Z,18.80
2019-03-22T17:37:18.520Z,18.63
2019-03-22T17:39:46.445Z,18.27
2019-03-22T17:42:16.423Z,17.93
2019-03-22T17:44:45.722Z,17.52
2019-03-22T17:47:13.520Z,17.27
2019-03-22T17:49:48.088Z,17.05
2019-03-22T17:52:14.517Z,16.88
2019-03-22T17:54:44.886Z,16.70
2019-03-22T17:57:18.804Z,16.54
2019-03-22T17:59:46.837Z,16.44
2019-03-22T18:02:14.548Z,16.23
2019-03-22T18:04:42.286Z,16.12
2019-03-22T18:07:10.470Z,16.09
2019-03-22T18:09:38.474Z,15.95
2019-03-22T18:12:07.145Z,15.84
2019-03-22T18:14:37.585Z,15.66
2019-03-22T18:17:05.249Z,15.47
2019-03-22T18:19:32.952Z,15.38
2019-03-22T18:22:03.708Z,15.48
2019-03-22T18:24:31.415Z,15.42
2019-03-22T18:26:59.501Z,15.21
2019-03-22T18:29:28.297Z,15.19
2019-03-22T18:31:55.853Z,15.21
2019-03-22T18:34:23.492Z,15.13
2019-03-22T18:36:51.295Z,14.97
2019-03-22T18:39:18.989Z,14.87
2019-03-22T18:41:46.970Z,14.97
2019-03-22T18:44:14.602Z,14.91
2019-03-22T18:46:42.389Z,14.72
2019-03-22T18:49:11.164Z,14.68
2019-03-22T18:51:39.711Z,14.58
2019-03-22T18:54:09.247Z,14.41
2019-03-22T18:56:36.874Z,14.30
2019-03-22T18:59:04.567Z,14.35
2019-03-22T19:01:32.195Z,14.31
2019-03-22T19:03:59.970Z,14.26
2019-03-22T19:06:28.111Z,14.27
2019-03-22T19:08:57.092Z,14.32
2019-03-22T19:11:24.676Z,14.11
2019-03-22T19:13:53.506Z,14.12
2019-03-22T19:16:21.095Z,14.05
2019-03-22T19:18:48.795Z,13.99
2019-03-22T19:21:16.415Z,13.85
2019-03-22T19:23:44.114Z,13.67
2019-03-22T19:26:12.022Z,13.47
2019-03-22T19:28:41.410Z,13.44
2019-03-22T19:31:09.117Z,13.43
2019-03-22T19:33:37.044Z,13.47
2019-03-22T19:36:04.886Z,13.43
2019-03-22T19:38:32.874Z,13.35
2019-03-22T19:41:00.522Z,13.19
2019-03-22T19:43:28.156Z,13.07
2019-03-22T19:45:56.104Z,13.06
2019-03-22T19:48:23.757Z,12.94
2019-03-22T19:50:51.440Z,12.93
2019-03-22T19:53:19.650Z,12.75
2019-03-22T19:55:48.606Z,12.65
2019-03-22T19:58:17.325Z,12.92
2019-03-22T20:00:46.344Z,13.05
2019-03-22T20:03:14.109Z,12.92
2019-03-22T20:05:41.847Z,12.65
2019-03-22T20:08:12.899Z,12.49
2019-03-22T20:10:39.295Z,12.45
2019-03-22T20:13:06.922Z,12.33
2019-03-22T20:15:35.107Z,12.19
2019-03-22T20:18:02.710Z,12.11
2019-03-22T20:20:30.318Z,12.01
2019-03-22T20:22:59.947Z,11.92
2019-03-22T20:25:27.845Z,11.87
2019-03-22T20:27:56.950Z,11.67
2019-03-22T20:30:25.104Z,11.59
2019-03-22T20:32:53.013Z,11.50
2019-03-22T20:35:20.622Z,11.39
2019-03-22T20:37:48.655Z,11.43
2019-03-22T20:40:16.693Z,11.38
2019-03-22T20:42:44.258Z,11.39
2019-03-22T20:45:23.325Z,11.25
2019-03-22T20:47:41.815Z,11.24
2019-03-22T20:50:11.565Z,11.35
2019-03-22T20:52:39.260Z,11.25
2019-03-22T20:55:08.017Z,11.38
2019-03-22T20:57:36.008Z,11.27
2019-03-22T21:00:04.802Z,11.19
2019-03-22T21:02:32.587Z,11.20
2019-03-22T21:05:00.682Z,11.14
2019-03-22T21:07:28.481Z,11.28
2019-03-22T21:09:56.135Z,11.27
2019-03-22T21:12:23.717Z,11.01
2019-03-22T21:14:51.874Z,10.82
2019-03-22T21:17:19.675Z,10.92
2019-03-22T21:19:47.492Z,10.75
2019-03-22T21:22:16.575Z,10.48
2019-03-22T21:24:44.218Z,10.54
2019-03-22T21:27:15.838Z,10.51
2019-03-22T21:29:44.361Z,10.53
2019-03-22T21:32:11.042Z,10.41
2019-03-22T21:34:39.148Z,10.09
2019-03-22T21:37:07.031Z,9.98
2019-03-22T21:39:34.746Z,10.04
2019-03-22T21:42:02.455Z,10.02
2019-03-22T21:44:30.366Z,10.01
2019-03-22T21:46:58.116Z,9.81
2019-03-22T21:49:26.340Z,9.77
2019-03-22T21:51:53.925Z,9.84
2019-03-22T21:54:23.423Z,9.69
2019-03-22T21:56:51.233Z,9.68
2019-03-22T21:59:18.854Z,9.71
2019-03-22T22:01:46.666Z,9.92
2019-03-22T22:04:14.663Z,10.08
2019-03-22T22:06:42.272Z,9.70
2019-03-22T22:09:10.043Z,9.07
2019-03-22T22:11:37.741Z,8.73
2019-03-22T22:14:05.393Z,8.48
2019-03-22T22:16:33.186Z,8.11
2019-03-22T22:19:02.173Z,8.06
2019-03-22T22:21:30.858Z,7.91
2019-03-22T22:23:58.579Z,7.90
2019-03-22T22:26:26.241Z,7.92
2019-03-22T22:28:53.924Z,8.01
2019-03-22T22:31:22.175Z,8.14
2019-03-22T22:33:49.726Z,8.11
2019-03-22T22:36:17.532Z,8.05
2019-03-22T22:38:45.187Z,8.06
2019-03-22T22:41:12.855Z,7.94
2019-03-22T22:43:41.575Z,8.06
2019-03-22T22:46:09.707Z,8.49
2019-03-22T22:48:37.768Z,8.89
2019-03-22T22:51:05.533Z,9.08
2019-03-22T22:53:33.445Z,9.21
2019-03-22T22:56:01.550Z,9.38
2019-03-22T22:58:29.360Z,9.40
2019-03-22T23:00:57.002Z,9.44
2019-03-22T23:03:26.595Z,9.23
2019-03-22T23:05:54.305Z,9.07
2019-03-22T23:08:22.360Z,9.00
2019-03-22T23:10:49.999Z,8.99
2019-03-22T23:13:21.507Z,8.98
2019-03-22T23:15:49.260Z,8.89
2019-03-22T23:18:17.040Z,8.77
2019-03-22T23:20:44.631Z,8.66
2019-03-22T23:23:12.955Z,8.54
2019-03-22T23:25:40.626Z,8.48
2019-03-22T23:28:08.390Z,8.42
2019-03-22T23:30:36.201Z,8.34
2019-03-22T23:33:03.856Z,8.33
2019-03-22T23:35:31.563Z,8.26
2019-03-22T23:37:59.759Z,8.19
2019-03-22T23:40:27.539Z,8.15
2019-03-22T23:42:55.655Z,7.99
2019-03-22T23:45:23.902Z,8.03
2019-03-22T23:47:53.015Z,8.15
2019-03-22T23:50:20.905Z,8.10
2019-03-22T23:52:48.973Z,7.64
2019-03-22T23:55:16.775Z,7.28
2019-03-22T23:57:44.565Z,7.20
